sensor_id;sensor_type;location;lat;lon;timestamp;P1;durP1;ratioP1;P2;durP2;ratioP2
50757;SDS011;36732;47.980;11.652;2024-03-17T00:02:12;0.95;;;0.93;;
50757;SDS011;36732;47.980;11.652;2024-03-17T00:04:37;1.30;;;1.20;;
50757;SDS011;36732;47.980;11.652;2024-03-17T00:07:03;1.50;;;1.40;;
50757;SDS011;36732;47.980;11.652;2024-03-17T00:09:29;1.30;;;1.20;;
50757;SDS011;36732;47.980;11.652;2024-03-17T00:11:55;1.65;;;1.55;;
50757;SDS011;36732;47.980;11.652;2024-03-17T00:14:21;1.50;;;1.40;;
50757;SDS011;36732;47.980;11.652;2024-03-17T00:16:47;1.90;;;1.55;;
50757;SDS011;36732;47.980;11.652;2024-03-17T00:19:13;2.10;;;1.20;;
50757;SDS011;36732;47.980;11.652;2024-03-17T00:21:41;1.48;;;1.17;;
50757;SDS011;36732;47.980;11.652;2024-03-17T00:24:09;1.10;;;1.00;;
50757;SDS011;36732;47.980;11.652;2024-03-17T00:26:34;1.50;;;1.40;;
50757;SDS011;36732;47.980;11.652;2024-03-17T00:29:00;1.20;;;1.10;;
50757;SDS011;36732;47.980;11.652;2024-03-17T00:31:28;1.10;;;1.00;;
50757;SDS011;36732;47.980;11.652;2024-03-17T00:33:54;1.17;;;1.08;;
50757;SDS011;36732;47.980;11.652;2024-03-17T00:36:19;2.10;;;1.30;;
50757;SDS011;36732;47.980;11.652;2024-03-17T00:38:45;1.20;;;1.10;;
50757;SDS011;36732;47.980;11.652;2024-03-17T00:41:11;5.55;;;1.40;;
50757;SDS011;36732;47.980;11.652;2024-03-17T00:43:36;1.65;;;1.27;;
50757;SDS011;36732;47.980;11.652;2024-03-17T00:46:02;2.00;;;1.40;;
50757;SDS011;36732;47.980;11.652;2024-03-17T00:48:28;1.50;;;1.40;;
50757;SDS011;36732;47.980;11.652;2024-03-17T00:50:57;1.40;;;1.30;;
50757;SDS011;36732;47.980;11.652;2024-03-17T00:53:24;5.72;;;1.60;;
50757;SDS011;36732;47.980;11.652;2024-03-17T00:55:53;3.05;;;1.50;;
50757;SDS011;36732;47.980;11.652;2024-03-17T00:58:23;2.50;;;1.73;;
50757;SDS011;36732;47.980;11.652;2024-03-17T01:00:49;1.48;;;1.23;;
50757;SDS011;36732;47.980;11.652;2024-03-17T01:03:15;1.45;;;1.23;;
50757;SDS011;36732;47.980;11.652;2024-03-17T01:05:42;1.55;;;1.45;;
50757;SDS011;36732;47.980;11.652;2024-03-17T01:08:09;2.08;;;1.30;;
50757;SDS011;36732;47.980;11.652;2024-03-17T01:10:39;1.85;;;1.30;;
50757;SDS011;36732;47.980;11.652;2024-03-17T01:13:06;1.50;;;1.17;;
50757;SDS011;36732;47.980;11.652;2024-03-17T01:15:34;1.38;;;1.27;;
50757;SDS011;36732;47.980;11.652;2024-03-17T01:18:00;1.45;;;1.35;;
50757;SDS011;36732;47.980;11.652;2024-03-17T01:20:26;2.00;;;1.30;;
50757;SDS011;36732;47.980;11.652;2024-03-17T01:22:52;1.52;;;1.42;;
50757;SDS011;36732;47.980;11.652;2024-03-17T01:25:17;1.38;;;1.27;;
50757;SDS011;36732;47.980;11.652;2024-03-17T01:27:43;1.42;;;1.33;;
50757;SDS011;36732;47.980;11.652;2024-03-17T01:30:10;3.85;;;1.20;;
50757;SDS011;36732;47.980;11.652;2024-03-17T01:32:37;2.15;;;1.88;;
50757;SDS011;36732;47.980;11.652;2024-03-17T01:35:03;2.83;;;1.60;;
50757;SDS011;36732;47.980;11.652;2024-03-17T01:37:30;1.80;;;1.40;;
50757;SDS011;36732;47.980;11.652;2024-03-17T01:39:57;1.98;;;1.50;;
50757;SDS011;36732;47.980;11.652;2024-03-17T01:42:26;1.63;;;1.30;;
50757;SDS011;36732;47.980;11.652;2024-03-17T01:44:51;1.77;;;1.65;;
50757;SDS011;36732;47.980;11.652;2024-03-17T01:47:18;1.98;;;1.60;;
50757;SDS011;36732;47.980;11.652;2024-03-17T01:49:47;1.67;;;1.42;;
50757;SDS011;36732;47.980;11.652;2024-03-17T01:52:14;2.20;;;1.77;;
50757;SDS011;36732;47.980;11.652;2024-03-17T01:54:41;2.08;;;1.60;;
50757;SDS011;36732;47.980;11.652;2024-03-17T01:57:08;2.03;;;1.50;;
50757;SDS011;36732;47.980;11.652;2024-03-17T01:59:34;1.60;;;1.50;;
50757;SDS011;36732;47.980;11.652;2024-03-17T02:02:00;2.38;;;1.60;;
50757;SDS011;36732;47.980;11.652;2024-03-17T02:04:27;1.60;;;1.50;;
50757;SDS011;36732;47.980;11.652;2024-03-17T02:06:53;1.67;;;1.58;;
50757;SDS011;36732;47.980;11.652;2024-03-17T02:09:19;2.03;;;1.83;;
50757;SDS011;36732;47.980;11.652;2024-03-17T02:11:47;2.78;;;1.67;;
50757;SDS011;36732;47.980;11.652;2024-03-17T02:14:13;2.13;;;1.60;;
50757;SDS011;36732;47.980;11.652;2024-03-17T02:16:39;1.48;;;1.38;;
50757;SDS011;36732;47.980;11.652;2024-03-17T02:19:05;2.05;;;1.52;;
50757;SDS011;36732;47.980;11.652;2024-03-17T02:21:31;1.80;;;1.70;;
50757;SDS011;36732;47.980;11.652;2024-03-17T02:23:57;1.83;;;1.48;;
50757;SDS011;36732;47.980;11.652;2024-03-17T02:26:25;1.95;;;1.65;;
50757;SDS011;36732;47.980;11.652;2024-03-17T02:28:51;1.63;;;1.52;;
50757;SDS011;36732;47.980;11.652;2024-03-17T02:31:17;1.85;;;1.70;;
50757;SDS011;36732;47.980;11.652;2024-03-17T02:33:44;1.48;;;1.38;;
50757;SDS011;36732;47.980;11.652;2024-03-17T02:36:10;1.85;;;1.70;;
50757;SDS011;36732;47.980;11.652;2024-03-17T02:38:37;3.03;;;1.70;;
50757;SDS011;36732;47.980;11.652;2024-03-17T02:41:25;1.60;;;1.50;;
50757;SDS011;36732;47.980;11.652;2024-03-17T02:43:52;1.80;;;1.70;;
50757;SDS011;36732;47.980;11.652;2024-03-17T02:46:18;1.80;;;1.52;;
50757;SDS011;36732;47.980;11.652;2024-03-17T02:48:45;2.35;;;1.70;;
50757;SDS011;36732;47.980;11.652;2024-03-17T02:51:13;2.67;;;1.65;;
50757;SDS011;36732;47.980;11.652;2024-03-17T02:53:43;2.05;;;1.83;;
50757;SDS011;36732;47.980;11.652;2024-03-17T02:56:18;1.33;;;1.23;;
50757;SDS011;36732;47.980;11.652;2024-03-17T02:58:44;1.63;;;1.52;;
50757;SDS011;36732;47.980;11.652;2024-03-17T03:01:12;2.00;;;1.58;;
50757;SDS011;36732;47.980;11.652;2024-03-17T03:03:39;2.67;;;1.55;;
50757;SDS011;36732;47.980;11.652;2024-03-17T03:06:05;1.50;;;1.40;;
50757;SDS011;36732;47.980;11.652;2024-03-17T03:08:40;1.33;;;1.23;;
50757;SDS011;36732;47.980;11.652;2024-03-17T03:11:07;1.33;;;1.23;;
50757;SDS011;36732;47.980;11.652;2024-03-17T03:13:40;2.67;;;1.98;;
50757;SDS011;36732;47.980;11.652;2024-03-17T03:16:08;1.58;;;1.38;;
50757;SDS011;36732;47.980;11.652;2024-03-17T03:18:43;2.15;;;1.80;;
50757;SDS011;36732;47.980;11.652;2024-03-17T03:21:10;2.85;;;1.70;;
50757;SDS011;36732;47.980;11.652;2024-03-17T03:23:37;1.63;;;1.52;;
50757;SDS011;36732;47.980;11.652;2024-03-17T03:26:03;1.80;;;1.45;;
50757;SDS011;36732;47.980;11.652;2024-03-17T03:28:30;2.05;;;1.60;;
50757;SDS011;36732;47.980;11.652;2024-03-17T03:30:58;1.60;;;1.50;;
50757;SDS011;36732;47.980;11.652;2024-03-17T03:33:24;1.63;;;1.52;;
50757;SDS011;36732;47.980;11.652;2024-03-17T03:35:50;2.25;;;1.90;;
50757;SDS011;36732;47.980;11.652;2024-03-17T03:38:16;2.10;;;1.90;;
50757;SDS011;36732;47.980;11.652;2024-03-17T03:40:43;1.67;;;1.58;;
50757;SDS011;36732;47.980;11.652;2024-03-17T03:43:09;1.70;;;1.60;;
50757;SDS011;36732;47.980;11.652;2024-03-17T03:45:35;1.60;;;1.50;;
50757;SDS011;36732;47.980;11.652;2024-03-17T03:48:02;1.60;;;1.50;;
50757;SDS011;36732;47.980;11.652;2024-03-17T03:50:29;1.38;;;1.27;;
50757;SDS011;36732;47.980;11.652;2024-03-17T03:52:55;2.40;;;1.73;;
50757;SDS011;36732;47.980;11.652;2024-03-17T03:55:21;1.55;;;1.42;;
50757;SDS011;36732;47.980;11.652;2024-03-17T03:57:47;2.45;;;1.73;;
50757;SDS011;36732;47.980;11.652;2024-03-17T04:00:13;1.60;;;1.50;;
50757;SDS011;36732;47.980;11.652;2024-03-17T04:02:42;1.33;;;1.23;;
50757;SDS011;36732;47.980;11.652;2024-03-17T04:05:09;1.83;;;1.70;;
50757;SDS011;36732;47.980;11.652;2024-03-17T04:07:36;1.88;;;1.50;;
50757;SDS011;36732;47.980;11.652;2024-03-17T04:10:02;1.88;;;1.70;;
50757;SDS011;36732;47.980;11.652;2024-03-17T04:12:28;2.42;;;1.40;;
50757;SDS011;36732;47.980;11.652;2024-03-17T04:14:57;2.28;;;1.90;;
50757;SDS011;36732;47.980;11.652;2024-03-17T04:17:24;1.98;;;1.58;;
50757;SDS011;36732;47.980;11.652;2024-03-17T04:19:50;1.80;;;1.70;;
50757;SDS011;36732;47.980;11.652;2024-03-17T04:22:17;1.40;;;1.30;;
50757;SDS011;36732;47.980;11.652;2024-03-17T04:24:45;1.70;;;1.60;;
50757;SDS011;36732;47.980;11.652;2024-03-17T04:27:11;4.07;;;1.50;;
50757;SDS011;36732;47.980;11.652;2024-03-17T04:29:38;2.13;;;1.92;;
50757;SDS011;36732;47.980;11.652;2024-03-17T04:32:05;2.00;;;1.58;;
50757;SDS011;36732;47.980;11.652;2024-03-17T04:34:31;1.73;;;1.63;;
50757;SDS011;36732;47.980;11.652;2024-03-17T04:36:57;1.70;;;1.60;;
50757;SDS011;36732;47.980;11.652;2024-03-17T04:39:24;2.10;;;1.90;;
50757;SDS011;36732;47.980;11.652;2024-03-17T04:41:50;1.60;;;1.50;;
50757;SDS011;36732;47.980;11.652;2024-03-17T04:44:16;1.60;;;1.50;;
50757;SDS011;36732;47.980;11.652;2024-03-17T04:46:42;3.35;;;2.05;;
50757;SDS011;36732;47.980;11.652;2024-03-17T04:49:09;2.08;;;1.90;;
50757;SDS011;36732;47.980;11.652;2024-03-17T04:51:34;1.85;;;1.75;;
50757;SDS011;36732;47.980;11.652;2024-03-17T04:54:01;1.77;;;1.67;;
50757;SDS011;36732;47.980;11.652;2024-03-17T04:56:31;2.08;;;1.88;;
50757;SDS011;36732;47.980;11.652;2024-03-17T04:58:56;2.33;;;2.13;;
50757;SDS011;36732;47.980;11.652;2024-03-17T05:01:22;2.45;;;1.80;;
50757;SDS011;36732;47.980;11.652;2024-03-17T05:03:50;2.03;;;1.83;;
50757;SDS011;36732;47.980;11.652;2024-03-17T05:06:17;2.28;;;2.08;;
50757;SDS011;36732;47.980;11.652;2024-03-17T05:08:43;4.18;;;2.28;;
50757;SDS011;36732;47.980;11.652;2024-03-17T05:11:08;1.95;;;1.70;;
50757;SDS011;36732;47.980;11.652;2024-03-17T05:13:35;2.33;;;2.13;;
50757;SDS011;36732;47.980;11.652;2024-03-17T05:16:04;1.58;;;1.48;;
50757;SDS011;36732;47.980;11.652;2024-03-17T05:18:30;1.48;;;1.38;;
50757;SDS011;36732;47.980;11.652;2024-03-17T05:21:00;2.17;;;1.40;;
50757;SDS011;36732;47.980;11.652;2024-03-17T05:23:31;1.45;;;1.33;;
50757;SDS011;36732;47.980;11.652;2024-03-17T05:26:04;1.70;;;1.60;;
50757;SDS011;36732;47.980;11.652;2024-03-17T05:28:30;4.28;;;1.70;;
50757;SDS011;36732;47.980;11.652;2024-03-17T05:30:56;1.77;;;1.58;;
50757;SDS011;36732;47.980;11.652;2024-03-17T05:33:22;1.55;;;1.45;;
50757;SDS011;36732;47.980;11.652;2024-03-17T05:35:54;2.00;;;1.70;;
50757;SDS011;36732;47.980;11.652;2024-03-17T05:38:25;1.67;;;1.27;;
50757;SDS011;36732;47.980;11.652;2024-03-17T05:40:53;2.05;;;1.85;;
50757;SDS011;36732;47.980;11.652;2024-03-17T05:43:32;2.15;;;1.30;;
50757;SDS011;36732;47.980;11.652;2024-03-17T05:46:03;2.47;;;1.60;;
50757;SDS011;36732;47.980;11.652;2024-03-17T05:48:34;1.92;;;1.50;;
50757;SDS011;36732;47.980;11.652;2024-03-17T05:51:04;1.10;;;1.00;;
50757;SDS011;36732;47.980;11.652;2024-03-17T05:53:31;1.30;;;1.20;;
50757;SDS011;36732;47.980;11.652;2024-03-17T05:55:59;1.20;;;1.10;;
50757;SDS011;36732;47.980;11.652;2024-03-17T05:58:26;1.23;;;1.13;;
50757;SDS011;36732;47.980;11.652;2024-03-17T06:00:52;1.30;;;1.20;;
50757;SDS011;36732;47.980;11.652;2024-03-17T06:03:18;1.05;;;1.00;;
50757;SDS011;36732;47.980;11.652;2024-03-17T06:05:44;1.25;;;1.15;;
50757;SDS011;36732;47.980;11.652;2024-03-17T06:08:11;1.30;;;1.20;;
50757;SDS011;36732;47.980;11.652;2024-03-17T06:10:37;2.08;;;1.40;;
50757;SDS011;36732;47.980;11.652;2024-03-17T06:13:07;2.15;;;1.20;;
50757;SDS011;36732;47.980;11.652;2024-03-17T06:15:37;1.58;;;1.48;;
50757;SDS011;36732;47.980;11.652;2024-03-17T06:18:03;1.77;;;1.67;;
50757;SDS011;36732;47.980;11.652;2024-03-17T06:20:29;2.10;;;1.85;;
50757;SDS011;36732;47.980;11.652;2024-03-17T06:22:55;1.60;;;1.50;;
50757;SDS011;36732;47.980;11.652;2024-03-17T06:25:22;2.00;;;1.70;;
50757;SDS011;36732;47.980;11.652;2024-03-17T06:27:48;1.45;;;1.35;;
50757;SDS011;36732;47.980;11.652;2024-03-17T06:30:18;1.45;;;1.30;;
50757;SDS011;36732;47.980;11.652;2024-03-17T06:32:44;1.67;;;1.50;;
50757;SDS011;36732;47.980;11.652;2024-03-17T06:35:14;1.80;;;1.45;;
50757;SDS011;36732;47.980;11.652;2024-03-17T06:37:40;1.92;;;1.38;;
50757;SDS011;36732;47.980;11.652;2024-03-17T06:40:08;1.80;;;1.70;;
50757;SDS011;36732;47.980;11.652;2024-03-17T06:42:39;2.30;;;2.10;;
50757;SDS011;36732;47.980;11.652;2024-03-17T06:45:05;2.10;;;1.90;;
50757;SDS011;36732;47.980;11.652;2024-03-17T06:47:37;2.30;;;2.10;;
50757;SDS011;36732;47.980;11.652;2024-03-17T06:50:04;2.20;;;1.90;;
50757;SDS011;36732;47.980;11.652;2024-03-17T06:52:30;2.63;;;2.33;;
50757;SDS011;36732;47.980;11.652;2024-03-17T06:54:56;2.90;;;2.17;;
50757;SDS011;36732;47.980;11.652;2024-03-17T06:57:23;2.17;;;1.98;;
50757;SDS011;36732;47.980;11.652;2024-03-17T06:59:49;2.33;;;2.13;;
50757;SDS011;36732;47.980;11.652;2024-03-17T07:02:16;1.92;;;1.73;;
50757;SDS011;36732;47.980;11.652;2024-03-17T07:04:43;1.90;;;1.65;;
50757;SDS011;36732;47.980;11.652;2024-03-17T07:07:09;1.70;;;1.60;;
50757;SDS011;36732;47.980;11.652;2024-03-17T07:09:37;1.80;;;1.63;;
50757;SDS011;36732;47.980;11.652;2024-03-17T07:12:04;2.17;;;1.70;;
50757;SDS011;36732;47.980;11.652;2024-03-17T07:14:34;2.70;;;2.50;;
50757;SDS011;36732;47.980;11.652;2024-03-17T07:17:00;2.08;;;1.90;;
50757;SDS011;36732;47.980;11.652;2024-03-17T07:19:26;1.75;;;1.60;;
50757;SDS011;36732;47.980;11.652;2024-03-17T07:21:53;2.00;;;1.83;;
50757;SDS011;36732;47.980;11.652;2024-03-17T07:24:19;2.20;;;1.88;;
50757;SDS011;36732;47.980;11.652;2024-03-17T07:26:47;1.45;;;1.35;;
50757;SDS011;36732;47.980;11.652;2024-03-17T07:29:14;1.42;;;1.00;;
50757;SDS011;36732;47.980;11.652;2024-03-17T07:31:40;0.98;;;0.95;;
50757;SDS011;36732;47.980;11.652;2024-03-17T07:34:06;1.25;;;1.10;;
50757;SDS011;36732;47.980;11.652;2024-03-17T07:36:32;1.40;;;1.10;;
50757;SDS011;36732;47.980;11.652;2024-03-17T07:38:58;1.10;;;1.00;;
50757;SDS011;36732;47.980;11.652;2024-03-17T07:41:23;1.02;;;0.93;;
50757;SDS011;36732;47.980;11.652;2024-03-17T07:43:50;0.85;;;0.85;;
50757;SDS011;36732;47.980;11.652;2024-03-17T07:46:15;1.10;;;1.00;;
50757;SDS011;36732;47.980;11.652;2024-03-17T07:48:41;1.35;;;0.70;;
50757;SDS011;36732;47.980;11.652;2024-03-17T07:51:12;0.90;;;0.80;;
50757;SDS011;36732;47.980;11.652;2024-03-17T07:53:44;0.88;;;0.85;;
50757;SDS011;36732;47.980;11.652;2024-03-17T07:56:12;1.23;;;0.80;;
50757;SDS011;36732;47.980;11.652;2024-03-17T07:58:40;0.75;;;0.75;;
50757;SDS011;36732;47.980;11.652;2024-03-17T08:01:08;1.00;;;0.90;;
50757;SDS011;36732;47.980;11.652;2024-03-17T08:03:42;0.75;;;0.75;;
50757;SDS011;36732;47.980;11.652;2024-03-17T08:06:11;1.05;;;0.82;;
50757;SDS011;36732;47.980;11.652;2024-03-17T08:08:36;0.88;;;0.88;;
50757;SDS011;36732;47.980;11.652;2024-03-17T08:11:02;0.85;;;0.85;;
50757;SDS011;36732;47.980;11.652;2024-03-17T08:13:29;1.13;;;1.02;;
50757;SDS011;36732;47.980;11.652;2024-03-17T08:16:03;1.10;;;1.00;;
50757;SDS011;36732;47.980;11.652;2024-03-17T08:18:30;1.10;;;1.00;;
50757;SDS011;36732;47.980;11.652;2024-03-17T08:20:57;1.08;;;0.98;;
50757;SDS011;36732;47.980;11.652;2024-03-17T08:23:24;1.23;;;1.13;;
50757;SDS011;36732;47.980;11.652;2024-03-17T08:25:54;1.25;;;1.15;;
50757;SDS011;36732;47.980;11.652;2024-03-17T08:28:20;1.25;;;1.15;;
50757;SDS011;36732;47.980;11.652;2024-03-17T08:30:59;1.55;;;1.40;;
50757;SDS011;36732;47.980;11.652;2024-03-17T08:33:29;1.50;;;1.30;;
50757;SDS011;36732;47.980;11.652;2024-03-17T08:35:59;3.50;;;1.05;;
50757;SDS011;36732;47.980;11.652;2024-03-17T08:38:28;1.30;;;1.20;;
50757;SDS011;36732;47.980;11.652;2024-03-17T08:40:56;2.08;;;1.25;;
50757;SDS011;36732;47.980;11.652;2024-03-17T08:43:29;2.90;;;1.38;;
50757;SDS011;36732;47.980;11.652;2024-03-17T08:48:32;2.10;;;1.10;;
50757;SDS011;36732;47.980;11.652;2024-03-17T08:51:00;1.25;;;0.80;;
50757;SDS011;36732;47.980;11.652;2024-03-17T08:53:27;0.93;;;0.90;;
50757;SDS011;36732;47.980;11.652;2024-03-17T08:55:54;1.50;;;1.10;;
50757;SDS011;36732;47.980;11.652;2024-03-17T08:58:20;1.42;;;0.82;;
50757;SDS011;36732;47.980;11.652;2024-03-17T09:00:46;1.08;;;0.90;;
50757;SDS011;36732;47.980;11.652;2024-03-17T09:03:12;1.17;;;1.00;;
50757;SDS011;36732;47.980;11.652;2024-03-17T09:05:40;1.05;;;0.70;;
50757;SDS011;36732;47.980;11.652;2024-03-17T09:08:10;1.98;;;0.90;;
50757;SDS011;36732;47.980;11.652;2024-03-17T09:10:43;1.00;;;0.90;;
50757;SDS011;36732;47.980;11.652;2024-03-17T09:13:16;1.35;;;0.93;;
50757;SDS011;36732;47.980;11.652;2024-03-17T09:15:55;1.10;;;1.00;;
50757;SDS011;36732;47.980;11.652;2024-03-17T09:18:26;1.27;;;1.07;;
50757;SDS011;36732;47.980;11.652;2024-03-17T09:23:23;0.95;;;0.85;;
50757;SDS011;36732;47.980;11.652;2024-03-17T09:25:59;1.00;;;0.73;;
50757;SDS011;36732;47.980;11.652;2024-03-17T09:28:36;2.67;;;1.10;;
50757;SDS011;36732;47.980;11.652;2024-03-17T09:31:02;0.95;;;0.73;;
50757;SDS011;36732;47.980;11.652;2024-03-17T09:33:31;1.00;;;0.95;;
50757;SDS011;36732;47.980;11.652;2024-03-17T09:36:16;2.90;;;1.05;;
50757;SDS011;36732;47.980;11.652;2024-03-17T09:38:43;1.60;;;0.90;;
50757;SDS011;36732;47.980;11.652;2024-03-17T09:41:16;1.10;;;0.75;;
50757;SDS011;36732;47.980;11.652;2024-03-17T09:43:54;2.20;;;0.70;;
50757;SDS011;36732;47.980;11.652;2024-03-17T09:46:24;1.27;;;0.80;;
50757;SDS011;36732;47.980;11.652;2024-03-17T09:48:52;0.63;;;0.60;;
50757;SDS011;36732;47.980;11.652;2024-03-17T09:51:22;1.73;;;0.60;;
50757;SDS011;36732;47.980;11.652;2024-03-17T09:53:51;0.93;;;0.70;;
50757;SDS011;36732;47.980;11.652;2024-03-17T09:56:17;1.05;;;0.52;;
50757;SDS011;36732;47.980;11.652;2024-03-17T09:58:45;0.82;;;0.60;;
50757;SDS011;36732;47.980;11.652;2024-03-17T10:01:14;1.75;;;0.70;;
50757;SDS011;36732;47.980;11.652;2024-03-17T10:06:16;1.40;;;0.88;;
50757;SDS011;36732;47.980;11.652;2024-03-17T10:08:50;1.65;;;0.85;;
50757;SDS011;36732;47.980;11.652;2024-03-17T10:11:19;0.63;;;0.52;;
50757;SDS011;36732;47.980;11.652;2024-03-17T10:13:58;1.83;;;0.68;;
50757;SDS011;36732;47.980;11.652;2024-03-17T10:16:30;0.85;;;0.60;;
50757;SDS011;36732;47.980;11.652;2024-03-17T10:19:10;3.13;;;1.10;;
50757;SDS011;36732;47.980;11.652;2024-03-17T10:21:41;2.65;;;0.95;;
50757;SDS011;36732;47.980;11.652;2024-03-17T10:24:21;1.08;;;0.60;;
50757;SDS011;36732;47.980;11.652;2024-03-17T10:26:49;1.25;;;0.80;;
50757;SDS011;36732;47.980;11.652;2024-03-17T10:29:30;2.00;;;0.57;;
50757;SDS011;36732;47.980;11.652;2024-03-17T10:32:03;0.88;;;0.57;;
50757;SDS011;36732;47.980;11.652;2024-03-17T10:34:30;1.85;;;0.85;;
50757;SDS011;36732;47.980;11.652;2024-03-17T10:37:09;2.15;;;0.70;;
50757;SDS011;36732;47.980;11.652;2024-03-17T10:39:50;1.17;;;0.75;;
50757;SDS011;36732;47.980;11.652;2024-03-17T10:42:22;1.80;;;0.70;;
50757;SDS011;36732;47.980;11.652;2024-03-17T10:44:56;1.42;;;0.68;;
50757;SDS011;36732;47.980;11.652;2024-03-17T10:47:24;1.63;;;0.70;;
50757;SDS011;36732;47.980;11.652;2024-03-17T10:49:51;1.20;;;0.47;;
50757;SDS011;36732;47.980;11.652;2024-03-17T10:52:20;0.93;;;0.60;;
50757;SDS011;36732;47.980;11.652;2024-03-17T10:54:48;1.58;;;0.60;;
50757;SDS011;36732;47.980;11.652;2024-03-17T11:00:04;1.70;;;0.60;;
50757;SDS011;36732;47.980;11.652;2024-03-17T11:02:33;0.85;;;0.65;;
50757;SDS011;36732;47.980;11.652;2024-03-17T11:05:02;0.82;;;0.57;;
50757;SDS011;36732;47.980;11.652;2024-03-17T11:07:47;1.88;;;0.60;;
50757;SDS011;36732;47.980;11.652;2024-03-17T11:10:20;2.63;;;1.15;;
50757;SDS011;36732;47.980;11.652;2024-03-17T11:13:28;2.30;;;0.65;;
50757;SDS011;36732;47.980;11.652;2024-03-17T11:15:57;2.88;;;0.70;;
50757;SDS011;36732;47.980;11.652;2024-03-17T11:20:56;1.90;;;0.68;;
50757;SDS011;36732;47.980;11.652;2024-03-17T11:23:37;4.65;;;0.88;;
50757;SDS011;36732;47.980;11.652;2024-03-17T11:26:04;2.00;;;0.70;;
50757;SDS011;36732;47.980;11.652;2024-03-17T11:34:06;1.48;;;0.60;;
50757;SDS011;36732;47.980;11.652;2024-03-17T11:36:55;2.35;;;0.70;;
50757;SDS011;36732;47.980;11.652;2024-03-17T11:42:21;2.25;;;0.73;;
50757;SDS011;36732;47.980;11.652;2024-03-17T11:44:58;1.08;;;0.57;;
50757;SDS011;36732;47.980;11.652;2024-03-17T11:47:37;2.50;;;0.90;;
50757;SDS011;36732;47.980;11.652;2024-03-17T11:50:06;1.00;;;0.57;;
50757;SDS011;36732;47.980;11.652;2024-03-17T11:52:35;1.33;;;0.50;;
50757;SDS011;36732;47.980;11.652;2024-03-17T11:55:02;2.60;;;0.95;;
50757;SDS011;36732;47.980;11.652;2024-03-17T11:57:28;1.42;;;0.55;;
50757;SDS011;36732;47.980;11.652;2024-03-17T11:59:54;3.00;;;1.13;;
50757;SDS011;36732;47.980;11.652;2024-03-17T12:04:56;1.48;;;0.45;;
50757;SDS011;36732;47.980;11.652;2024-03-17T12:07:25;3.22;;;0.50;;
50757;SDS011;36732;47.980;11.652;2024-03-17T12:09:53;2.33;;;0.60;;
50757;SDS011;36732;47.980;11.652;2024-03-17T12:12:21;0.65;;;0.45;;
50757;SDS011;36732;47.980;11.652;2024-03-17T12:14:49;2.95;;;0.65;;
50757;SDS011;36732;47.980;11.652;2024-03-17T12:17:22;1.83;;;0.52;;
50757;SDS011;36732;47.980;11.652;2024-03-17T12:19:50;1.55;;;0.50;;
50757;SDS011;36732;47.980;11.652;2024-03-17T12:22:17;1.33;;;0.50;;
50757;SDS011;36732;47.980;11.652;2024-03-17T12:24:47;2.50;;;0.60;;
50757;SDS011;36732;47.980;11.652;2024-03-17T12:27:18;0.77;;;0.40;;
50757;SDS011;36732;47.980;11.652;2024-03-17T12:29:50;1.33;;;0.40;;
50757;SDS011;36732;47.980;11.652;2024-03-17T12:34:51;1.25;;;0.50;;
50757;SDS011;36732;47.980;11.652;2024-03-17T12:37:20;0.88;;;0.40;;
50757;SDS011;36732;47.980;11.652;2024-03-17T12:39:55;0.60;;;0.40;;
50757;SDS011;36732;47.980;11.652;2024-03-17T12:42:24;1.17;;;0.45;;
50757;SDS011;36732;47.980;11.652;2024-03-17T12:44:55;2.80;;;0.50;;
50757;SDS011;36732;47.980;11.652;2024-03-17T12:47:28;0.65;;;0.40;;
50757;SDS011;36732;47.980;11.652;2024-03-17T12:49:56;0.88;;;0.60;;
50757;SDS011;36732;47.980;11.652;2024-03-17T12:52:24;1.42;;;0.52;;
50757;SDS011;36732;47.980;11.652;2024-03-17T12:54:58;1.60;;;0.70;;
50757;SDS011;36732;47.980;11.652;2024-03-17T12:57:54;1.65;;;0.50;;
50757;SDS011;36732;47.980;11.652;2024-03-17T13:00:57;7.18;;;0.63;;
50757;SDS011;36732;47.980;11.652;2024-03-17T13:05:59;1.65;;;0.50;;
50757;SDS011;36732;47.980;11.652;2024-03-17T13:08:28;0.77;;;0.50;;
50757;SDS011;36732;47.980;11.652;2024-03-17T13:10:54;1.38;;;0.50;;
50757;SDS011;36732;47.980;11.652;2024-03-17T13:13:20;0.60;;;0.38;;
50757;SDS011;36732;47.980;11.652;2024-03-17T13:15:46;1.50;;;0.47;;
50757;SDS011;36732;47.980;11.652;2024-03-17T13:18:15;1.27;;;0.60;;
50757;SDS011;36732;47.980;11.652;2024-03-17T13:20:46;0.98;;;0.50;;
50757;SDS011;36732;47.980;11.652;2024-03-17T13:23:14;1.58;;;0.63;;
50757;SDS011;36732;47.980;11.652;2024-03-17T13:25:41;1.08;;;0.45;;
50757;SDS011;36732;47.980;11.652;2024-03-17T13:28:08;3.33;;;0.88;;
50757;SDS011;36732;47.980;11.652;2024-03-17T13:30:35;1.95;;;0.57;;
50757;SDS011;36732;47.980;11.652;2024-03-17T13:33:04;0.75;;;0.50;;
50757;SDS011;36732;47.980;11.652;2024-03-17T13:35:33;1.30;;;0.50;;
50757;SDS011;36732;47.980;11.652;2024-03-17T13:38:03;2.00;;;0.70;;
50757;SDS011;36732;47.980;11.652;2024-03-17T13:40:34;11.52;;;0.98;;
50757;SDS011;36732;47.980;11.652;2024-03-17T13:43:01;1.48;;;0.82;;
50757;SDS011;36732;47.980;11.652;2024-03-17T13:45:28;1.88;;;0.50;;
50757;SDS011;36732;47.980;11.652;2024-03-17T13:48:00;1.15;;;0.50;;
50757;SDS011;36732;47.980;11.652;2024-03-17T13:50:31;2.60;;;0.60;;
50757;SDS011;36732;47.980;11.652;2024-03-17T13:52:57;2.90;;;0.60;;
50757;SDS011;36732;47.980;11.652;2024-03-17T13:55:24;1.63;;;0.60;;
50757;SDS011;36732;47.980;11.652;2024-03-17T13:57:54;1.85;;;0.57;;
50757;SDS011;36732;47.980;11.652;2024-03-17T14:00:22;2.65;;;0.47;;
50757;SDS011;36732;47.980;11.652;2024-03-17T14:02:50;1.05;;;0.60;;
50757;SDS011;36732;47.980;11.652;2024-03-17T14:05:18;1.45;;;0.50;;
50757;SDS011;36732;47.980;11.652;2024-03-17T14:07:48;1.23;;;0.70;;
50757;SDS011;36732;47.980;11.652;2024-03-17T14:10:15;1.95;;;0.73;;
50757;SDS011;36732;47.980;11.652;2024-03-17T14:12:43;1.33;;;0.40;;
50757;SDS011;36732;47.980;11.652;2024-03-17T14:15:10;0.77;;;0.40;;
50757;SDS011;36732;47.980;11.652;2024-03-17T14:17:37;2.05;;;0.60;;
50757;SDS011;36732;47.980;11.652;2024-03-17T14:20:04;1.13;;;0.50;;
50757;SDS011;36732;47.980;11.652;2024-03-17T14:22:34;1.50;;;0.60;;
50757;SDS011;36732;47.980;11.652;2024-03-17T14:25:07;1.85;;;0.45;;
50757;SDS011;36732;47.980;11.652;2024-03-17T14:27:35;0.68;;;0.50;;
50757;SDS011;36732;47.980;11.652;2024-03-17T14:30:01;1.30;;;0.70;;
50757;SDS011;36732;47.980;11.652;2024-03-17T14:32:29;0.98;;;0.60;;
50757;SDS011;36732;47.980;11.652;2024-03-17T14:34:55;2.00;;;1.00;;
50757;SDS011;36732;47.980;11.652;2024-03-17T14:37:21;3.05;;;0.50;;
50757;SDS011;36732;47.980;11.652;2024-03-17T14:39:52;1.00;;;0.60;;
50757;SDS011;36732;47.980;11.652;2024-03-17T14:42:20;0.65;;;0.50;;
50757;SDS011;36732;47.980;11.652;2024-03-17T14:44:46;1.55;;;0.55;;
50757;SDS011;36732;47.980;11.652;2024-03-17T14:47:15;1.10;;;0.50;;
50757;SDS011;36732;47.980;11.652;2024-03-17T14:49:40;1.10;;;0.50;;
50757;SDS011;36732;47.980;11.652;2024-03-17T14:52:07;1.02;;;0.50;;
50757;SDS011;36732;47.980;11.652;2024-03-17T14:54:34;0.82;;;0.57;;
50757;SDS011;36732;47.980;11.652;2024-03-17T14:57:00;1.10;;;0.60;;
50757;SDS011;36732;47.980;11.652;2024-03-17T14:59:25;2.63;;;0.77;;
50757;SDS011;36732;47.980;11.652;2024-03-17T15:01:51;1.50;;;0.73;;
50757;SDS011;36732;47.980;11.652;2024-03-17T15:04:17;1.35;;;0.60;;
50757;SDS011;36732;47.980;11.652;2024-03-17T15:06:43;1.52;;;0.60;;
50757;SDS011;36732;47.980;11.652;2024-03-17T15:09:09;0.88;;;0.57;;
50757;SDS011;36732;47.980;11.652;2024-03-17T15:11:37;1.90;;;0.60;;